Weather at Aviosuperficie "Ali sul Castello"

Public forecast

Using degrees Celsius for public forecast. Weather courtesy of forecast.io.

Closest aviation weather report (METAR) to Aviosuperficie "Ali sul Castello"

Closest report is Bari Karol Wojtyła Airport, 22.2 nm (41.1 km) ENE.

2024/05/22 21:20 (retrieved 39 minutes ago)

LIBD 222120Z 21005KT 180V240 CAVOK 18/14 Q1015

Closest aviation forecast (TAF) to Aviosuperficie "Ali sul Castello"

Closest forecast is Bari Karol Wojtyła Airport, 22.2 nm (41.1 km) ENE.

2024/05/22 18:00 (retrieved 4 hours ago)

TAF LIBD 221700Z 2218/2318 VRB05KT CAVOK BECMG 2302/2304 26010KT BECMG 2309/2311 01012KT